Terminal Aerodrome Forecast
Issued by NWS Corpus Christi, TX

Home | Current Version | Previous Version | Text Only | Print | Product List | Glossary On
Versions: 1 2 3 4 5 6 7 8 9 10 11 12 13 14 15 16 17 18 19
244
FTUS44 KCRP 261359 AAA
TAFVCT
TAF AMD
KVCT 261359Z 2614/2712 18009KT 4SM BR BKN005 OVC020
      TEMPO 2614/2615 1SM BR SCT005
     FM261500 16010KT P6SM BKN018 BKN025
     FM261800 17017G23KT P6SM BKN035
     FM270300 16012KT P6SM BKN015
     FM270600 17008KT 2SM BR BKN005
      TEMPO 2709/2712 1/2SM FG=

USA.gov is the U.S. government's official web portal to all federal, state and local government web resources and services.